METAR Data

Data at: 1741 UTC 21 Nov 2018

METAR for:KPWM (Portland Intl, ME, US)
Text:KPWM 211651Z 20008G15KT 10SM BKN048 OVC090 00/M03 A2985 RMK AO2 SLP110 T00001028
Temperature: 0.0°C ( 32°F)
Dewpoint: -2.8°C ( 27°F) [RH = 81%]
Pressure (altimeter):29.85 inches Hg (1010.9 mb) [Sea level pressure: 1011.0 mb]
Winds:from the SSW (200 degrees) at 9 MPH (8 knots; 4.1 m/s) gusting to 17 MPH (15 knots; 7.7 m/s)
Visibility:10 or more sm (16+ km)
Ceiling:4800 feet AGL
Clouds: broken clouds at 4800 feet AGL, overcast cloud deck at 9000 feet AGL